Time;durP1;ratioP1;P1;durP2;ratioP2;P2;SDS_P1;SDS_P2;PMS_P1;PMS_P2;Temp;Humidity;BMP_temperature;BMP_pressure;BME280_temperature;BME280_humidity;BME280_pressure;Samples;Min_cycle;Max_cycle;Signal;HPM_P1;HPM_P2
2022/01/01 20:31:08;;;;;;;9.63;4.18;;;13.20;90.90;;;;;;5044085;28;20380;-69
2022/01/01 20:33:34;;;;;;;9.13;4.15;;;13.30;90.80;;;;;;5047325;28;20021;-69
2022/01/01 20:36:00;;;;;;;10.98;4.13;;;13.30;90.70;;;;;;5046494;28;20686;-69
2022/01/01 20:38:26;;;;;;;10.85;3.83;;;13.30;90.60;;;;;;5042873;28;20029;-70
2022/01/01 20:40:52;;;;;;;10.98;4.30;;;13.40;90.50;;;;;;5045040;28;20033;-70
2022/01/01 20:43:19;;;;;;;5.13;3.38;;;13.40;90.40;;;;;;5041588;28;20060;-70
2022/01/01 20:45:45;;;;;;;7.10;4.03;;;13.40;90.50;;;;;;5041509;28;20086;-70
2022/01/01 20:48:11;;;;;;;7.95;3.40;;;13.30;90.50;;;;;;5042278;28;20136;-68
2022/01/01 20:50:36;;;;;;;7.00;3.42;;;13.30;90.60;;;;;;5049573;28;20510;-69
2022/01/01 20:53:02;;;;;;;8.82;3.38;;;13.30;90.60;;;;;;5044296;28;20041;-69
2022/01/01 20:55:28;;;;;;;5.93;3.17;;;13.30;90.70;;;;;;5048553;28;20033;-68
2022/01/01 20:57:55;;;;;;;7.00;3.17;;;13.30;90.60;;;;;;5047865;28;20810;-67
2022/01/01 21:00:22;;;;;;;8.68;3.58;;;13.40;90.40;;;;;;5044865;28;20071;-67
2022/01/01 21:02:49;;;;;;;8.35;3.13;;;13.40;90.20;;;;;;5048084;28;20048;-69
2022/01/01 21:05:20;;;;;;;10.23;3.65;;;13.40;90.30;;;;;;5043125;28;20037;-69
2022/01/01 21:07:48;;;;;;;8.68;3.72;;;13.30;90.30;;;;;;5040013;28;20543;-68
2022/01/01 21:10:14;;;;;;;10.38;4.50;;;13.30;90.10;;;;;;5048663;28;20822;-69
2022/01/01 21:12:42;;;;;;;11.63;3.88;;;13.20;90.10;;;;;;5046055;28;20076;-68
2022/01/01 21:15:09;;;;;;;8.05;3.22;;;13.10;90.20;;;;;;5042191;28;20468;-68
2022/01/01 21:17:36;;;;;;;10.05;4.25;;;13.10;90.30;;;;;;5045994;28;20021;-69
2022/01/01 21:20:07;;;;;;;7.07;3.55;;;13.00;90.60;;;;;;5041757;28;20033;-69
2022/01/01 21:22:34;;;;;;;8.25;3.58;;;13.00;90.70;;;;;;5022595;28;20873;-69
2022/01/01 21:25:00;;;;;;;9.82;3.60;;;13.10;90.50;;;;;;5041135;28;20033;-68
2022/01/01 21:27:26;;;;;;;7.32;3.83;;;13.00;90.40;;;;;;5043621;28;20061;-68
2022/01/01 21:29:52;;;;;;;8.00;3.70;;;13.00;90.20;;;;;;5038612;28;20113;-69
2022/01/01 21:32:18;;;;;;;6.38;3.95;;;13.00;90.20;;;;;;5044384;28;20082;-69
2022/01/01 21:34:44;;;;;;;7.70;3.25;;;13.00;90.40;;;;;;5042408;28;20039;-68
2022/01/01 21:37:12;;;;;;;9.77;4.28;;;13.00;90.30;;;;;;5035315;28;20031;-68
2022/01/01 21:39:39;;;;;;;9.15;3.42;;;13.10;90.40;;;;;;5022419;28;20678;-68
2022/01/01 21:42:06;;;;;;;6.47;3.30;;;13.10;90.00;;;;;;5030403;28;20060;-69
2022/01/01 21:44:32;;;;;;;6.50;3.38;;;13.10;90.00;;;;;;5030763;28;20044;-68
2022/01/01 21:46:58;;;;;;;9.05;3.88;;;13.10;89.90;;;;;;5036157;28;20045;-69
2022/01/01 21:49:24;;;;;;;11.50;3.72;;;13.10;90.00;;;;;;5030036;28;20037;-69
2022/01/01 21:51:50;;;;;;;7.68;3.58;;;13.10;90.10;;;;;;5033692;28;20025;-69
2022/01/01 21:54:16;;;;;;;11.43;4.20;;;13.10;89.80;;;;;;5029419;28;20444;-68
2022/01/01 21:56:42;;;;;;;9.93;3.95;;;13.10;89.80;;;;;;5029367;28;20033;-67
2022/01/01 21:59:08;;;;;;;5.80;3.53;;;13.10;90.10;;;;;;5034147;28;20041;-67
2022/01/01 22:01:34;;;;;;;9.55;3.90;;;13.00;90.20;;;;;;5034722;28;20098;-65
2022/01/01 22:03:59;;;;;;;8.52;3.75;;;13.10;90.10;;;;;;5031776;28;20028;-66
2022/01/01 22:06:25;;;;;;;10.55;3.67;;;13.00;90.10;;;;;;5032257;28;20030;-65
2022/01/01 22:08:51;;;;;;;7.40;3.88;;;13.00;90.00;;;;;;5031005;28;20040;-66
2022/01/01 22:11:17;;;;;;;7.63;3.30;;;12.90;90.10;;;;;;5028723;28;20033;-67
2022/01/01 22:13:42;;;;;;;8.13;3.28;;;12.90;90.00;;;;;;5033655;28;20461;-70
2022/01/01 22:16:08;;;;;;;5.65;3.03;;;12.90;90.00;;;;;;5032210;28;20041;-68
2022/01/01 22:18:34;;;;;;;7.22;3.17;;;12.80;90.00;;;;;;5031075;28;20033;-66
2022/01/01 22:20:59;;;;;;;10.18;3.13;;;12.80;90.10;;;;;;5035909;28;20120;-69
2022/01/01 22:23:25;;;;;;;7.03;3.35;;;12.70;90.10;;;;;;5027783;28;20163;-69
2022/01/01 22:25:51;;;;;;;8.57;3.22;;;12.60;90.10;;;;;;5030481;28;20033;-66
2022/01/01 22:28:16;;;;;;;7.80;3.35;;;12.50;90.30;;;;;;5030292;28;20043;-66
2022/01/01 22:30:42;;;;;;;6.13;3.63;;;12.50;90.20;;;;;;5032663;28;20041;-65
2022/01/01 22:33:08;;;;;;;5.47;2.70;;;12.40;90.30;;;;;;5030099;28;20037;-69
2022/01/01 22:35:34;;;;;;;9.00;3.75;;;12.40;90.20;;;;;;5032737;28;20083;-67
2022/01/01 22:38:00;;;;;;;11.23;3.08;;;12.30;90.10;;;;;;5027339;28;20613;-66
2022/01/01 22:40:26;;;;;;;5.82;3.25;;;12.30;90.40;;;;;;5031173;28;20068;-66
2022/01/01 22:42:52;;;;;;;8.50;2.95;;;12.20;90.30;;;;;;5032150;28;20166;-68
2022/01/01 22:45:18;;;;;;;6.65;3.22;;;12.10;90.40;;;;;;5026793;28;20448;-68
2022/01/01 22:47:44;;;;;;;8.18;3.67;;;12.00;90.70;;;;;;5034431;28;20033;-67
2022/01/01 22:50:10;;;;;;;8.18;3.17;;;12.10;90.60;;;;;;5032449;28;20035;-67
2022/01/01 22:52:38;;;;;;;7.10;2.90;;;12.00;90.60;;;;;;5027972;28;20022;-68
2022/01/01 22:55:07;;;;;;;5.68;2.80;;;11.90;90.80;;;;;;5028081;28;20037;-67
2022/01/01 22:57:33;;;;;;;6.57;2.90;;;11.90;90.60;;;;;;5034875;28;20041;-67
2022/01/01 22:59:59;;;;;;;7.53;3.40;;;11.80;90.90;;;;;;5029614;28;20040;-67
2022/01/01 23:02:24;;;;;;;7.45;2.85;;;11.70;91.00;;;;;;5031330;28;20037;-67
2022/01/01 23:04:50;;;;;;;7.10;3.13;;;11.70;91.00;;;;;;5029897;28;20029;-67
2022/01/01 23:07:16;;;;;;;8.75;2.85;;;11.70;91.10;;;;;;5029347;28;20038;-66
2022/01/01 23:09:42;;;;;;;6.43;3.17;;;11.60;91.30;;;;;;5038695;28;20037;-66
2022/01/01 23:12:08;;;;;;;9.90;3.33;;;11.60;91.30;;;;;;5038184;28;20102;-67
2022/01/01 23:14:36;;;;;;;6.97;3.00;;;11.60;91.10;;;;;;5036972;28;20032;-67
2022/01/01 23:17:11;;;;;;;7.80;3.70;;;11.60;91.40;;;;;;5034491;28;20029;-67
2022/01/01 23:19:37;;;;;;;6.03;3.70;;;11.60;91.30;;;;;;5034083;28;20447;-67
2022/01/01 23:22:06;;;;;;;8.05;3.08;;;11.50;91.20;;;;;;5030656;28;20041;-67
2022/01/01 23:24:36;;;;;;;5.68;3.22;;;11.50;91.20;;;;;;5039237;28;20037;-67
2022/01/01 23:27:04;;;;;;;6.50;3.00;;;11.50;91.00;;;;;;5037899;28;20124;-67
2022/01/01 23:29:33;;;;;;;6.40;2.80;;;11.40;91.20;;;;;;5035113;28;20032;-67
2022/01/01 23:32:08;;;;;;;6.10;2.85;;;11.40;91.40;;;;;;5030591;28;20033;-67
2022/01/01 23:34:36;;;;;;;7.43;3.40;;;11.40;91.50;;;;;;5030183;28;20846;-68
2022/01/01 23:37:03;;;;;;;11.85;3.03;;;11.30;91.50;;;;;;5029319;28;20178;-67
2022/01/01 23:39:31;;;;;;;7.32;3.28;;;11.40;91.30;;;;;;5034477;28;20045;-67
2022/01/01 23:42:03;;;;;;;6.68;3.25;;;11.30;91.20;;;;;;5030596;28;20021;-67
2022/01/01 23:44:30;;;;;;;7.05;3.25;;;11.30;91.10;;;;;;5032223;28;20067;-67
2022/01/01 23:47:01;;;;;;;11.00;3.38;;;11.30;91.50;;;;;;5029440;28;20116;-67
2022/01/01 23:49:30;;;;;;;6.68;3.35;;;11.20;91.20;;;;;;5029041;28;20041;-68
2022/01/01 23:52:06;;;;;;;9.00;3.45;;;11.20;91.40;;;;;;5033175;28;20155;-67
2022/01/01 23:54:46;;;;;;;9.90;3.85;;;11.20;91.50;;;;;;5035666;28;20037;-67
2022/01/01 23:57:14;;;;;;;9.00;4.07;;;11.10;91.70;;;;;;5029459;28;20067;-67
2022/01/01 23:59:58;;;;;;;10.23;3.80;;;11.10;91.70;;;;;;5033617;28;20029;-67
